sensor_id;sensor_type;location;lat;lon;timestamp;P1;durP1;ratioP1;P2;durP2;ratioP2
67585;SDS011;55785;47.946;20.540;2024-03-22T00:00:16;3.23;;;1.93;;
67585;SDS011;55785;47.946;20.540;2024-03-22T00:02:41;3.37;;;2.40;;
67585;SDS011;55785;47.946;20.540;2024-03-22T00:05:07;5.10;;;2.37;;
67585;SDS011;55785;47.946;20.540;2024-03-22T00:07:32;5.17;;;2.20;;
67585;SDS011;55785;47.946;20.540;2024-03-22T00:09:57;3.92;;;2.83;;
67585;SDS011;55785;47.946;20.540;2024-03-22T00:12:23;6.20;;;2.30;;
67585;SDS011;55785;47.946;20.540;2024-03-22T00:14:49;7.50;;;2.37;;
67585;SDS011;55785;47.946;20.540;2024-03-22T00:17:14;3.13;;;1.93;;
67585;SDS011;55785;47.946;20.540;2024-03-22T00:19:39;6.33;;;2.17;;
67585;SDS011;55785;47.946;20.540;2024-03-22T00:22:05;5.40;;;2.47;;
67585;SDS011;55785;47.946;20.540;2024-03-22T00:24:30;7.20;;;2.23;;
67585;SDS011;55785;47.946;20.540;2024-03-22T00:26:55;4.77;;;1.97;;
67585;SDS011;55785;47.946;20.540;2024-03-22T00:29:21;3.37;;;1.93;;
67585;SDS011;55785;47.946;20.540;2024-03-22T00:31:46;3.40;;;2.23;;
67585;SDS011;55785;47.946;20.540;2024-03-22T00:34:12;3.40;;;2.40;;
67585;SDS011;55785;47.946;20.540;2024-03-22T00:36:37;3.37;;;2.17;;
67585;SDS011;55785;47.946;20.540;2024-03-22T00:39:02;5.30;;;2.23;;
67585;SDS011;55785;47.946;20.540;2024-03-22T00:41:28;4.60;;;2.63;;
67585;SDS011;55785;47.946;20.540;2024-03-22T00:43:53;4.37;;;2.50;;
67585;SDS011;55785;47.946;20.540;2024-03-22T00:46:18;4.13;;;2.03;;
67585;SDS011;55785;47.946;20.540;2024-03-22T00:48:44;5.80;;;2.30;;
67585;SDS011;55785;47.946;20.540;2024-03-22T00:51:09;3.27;;;2.10;;
67585;SDS011;55785;47.946;20.540;2024-03-22T00:53:34;2.87;;;2.13;;
67585;SDS011;55785;47.946;20.540;2024-03-22T00:56:00;7.23;;;2.73;;
67585;SDS011;55785;47.946;20.540;2024-03-22T00:58:26;7.23;;;2.53;;
67585;SDS011;55785;47.946;20.540;2024-03-22T01:00:52;3.50;;;2.00;;
67585;SDS011;55785;47.946;20.540;2024-03-22T01:03:17;5.97;;;2.40;;
67585;SDS011;55785;47.946;20.540;2024-03-22T01:05:43;3.97;;;2.03;;
67585;SDS011;55785;47.946;20.540;2024-03-22T01:08:08;5.53;;;2.63;;
67585;SDS011;55785;47.946;20.540;2024-03-22T01:10:33;5.73;;;2.47;;
67585;SDS011;55785;47.946;20.540;2024-03-22T01:12:59;4.20;;;2.33;;
67585;SDS011;55785;47.946;20.540;2024-03-22T01:15:24;3.57;;;2.10;;
67585;SDS011;55785;47.946;20.540;2024-03-22T01:17:49;4.70;;;2.17;;
67585;SDS011;55785;47.946;20.540;2024-03-22T01:20:15;4.40;;;2.22;;
67585;SDS011;55785;47.946;20.540;2024-03-22T01:22:40;4.27;;;2.43;;
67585;SDS011;55785;47.946;20.540;2024-03-22T01:25:06;3.87;;;2.10;;
67585;SDS011;55785;47.946;20.540;2024-03-22T01:27:32;5.57;;;2.50;;
67585;SDS011;55785;47.946;20.540;2024-03-22T01:29:57;3.17;;;2.20;;
67585;SDS011;55785;47.946;20.540;2024-03-22T01:32:22;5.32;;;2.70;;
67585;SDS011;55785;47.946;20.540;2024-03-22T01:34:48;3.57;;;2.13;;
67585;SDS011;55785;47.946;20.540;2024-03-22T01:37:13;3.65;;;2.33;;
67585;SDS011;55785;47.946;20.540;2024-03-22T01:39:38;3.83;;;2.00;;
67585;SDS011;55785;47.946;20.540;2024-03-22T01:42:04;4.82;;;2.50;;
67585;SDS011;55785;47.946;20.540;2024-03-22T01:44:31;8.07;;;2.27;;
67585;SDS011;55785;47.946;20.540;2024-03-22T01:46:57;7.40;;;2.22;;
67585;SDS011;55785;47.946;20.540;2024-03-22T01:49:23;4.37;;;2.57;;
67585;SDS011;55785;47.946;20.540;2024-03-22T01:51:50;3.33;;;2.03;;
67585;SDS011;55785;47.946;20.540;2024-03-22T01:54:16;5.10;;;2.73;;
67585;SDS011;55785;47.946;20.540;2024-03-22T01:56:41;2.80;;;2.00;;
67585;SDS011;55785;47.946;20.540;2024-03-22T01:59:07;4.07;;;2.50;;
67585;SDS011;55785;47.946;20.540;2024-03-22T02:01:33;3.50;;;2.10;;
67585;SDS011;55785;47.946;20.540;2024-03-22T02:04:00;4.30;;;1.90;;
67585;SDS011;55785;47.946;20.540;2024-03-22T02:06:25;4.30;;;2.43;;
67585;SDS011;55785;47.946;20.540;2024-03-22T02:08:51;6.50;;;2.27;;
67585;SDS011;55785;47.946;20.540;2024-03-22T02:11:16;4.07;;;1.80;;
67585;SDS011;55785;47.946;20.540;2024-03-22T02:13:42;2.90;;;1.87;;
67585;SDS011;55785;47.946;20.540;2024-03-22T02:16:07;4.50;;;2.13;;
67585;SDS011;55785;47.946;20.540;2024-03-22T02:18:32;3.97;;;1.83;;
67585;SDS011;55785;47.946;20.540;2024-03-22T02:20:58;5.20;;;1.90;;
67585;SDS011;55785;47.946;20.540;2024-03-22T02:23:33;3.38;;;2.28;;
67585;SDS011;55785;47.946;20.540;2024-03-22T02:26:02;3.37;;;1.90;;
67585;SDS011;55785;47.946;20.540;2024-03-22T02:28:28;3.47;;;2.13;;
67585;SDS011;55785;47.946;20.540;2024-03-22T02:30:54;4.27;;;2.13;;
67585;SDS011;55785;47.946;20.540;2024-03-22T02:33:20;4.30;;;2.60;;
67585;SDS011;55785;47.946;20.540;2024-03-22T02:35:48;5.37;;;2.10;;
67585;SDS011;55785;47.946;20.540;2024-03-22T02:38:15;3.30;;;2.07;;
67585;SDS011;55785;47.946;20.540;2024-03-22T02:40:42;3.33;;;2.00;;
67585;SDS011;55785;47.946;20.540;2024-03-22T02:43:08;3.20;;;2.22;;
67585;SDS011;55785;47.946;20.540;2024-03-22T02:45:33;3.10;;;2.00;;
67585;SDS011;55785;47.946;20.540;2024-03-22T02:47:59;3.17;;;1.93;;
67585;SDS011;55785;47.946;20.540;2024-03-22T02:50:24;4.57;;;2.77;;
67585;SDS011;55785;47.946;20.540;2024-03-22T02:52:49;4.77;;;1.97;;
67585;SDS011;55785;47.946;20.540;2024-03-22T02:55:15;3.50;;;2.07;;
67585;SDS011;55785;47.946;20.540;2024-03-22T02:57:40;7.27;;;2.07;;
67585;SDS011;55785;47.946;20.540;2024-03-22T03:00:06;4.33;;;2.33;;
67585;SDS011;55785;47.946;20.540;2024-03-22T03:02:32;5.63;;;1.90;;
67585;SDS011;55785;47.946;20.540;2024-03-22T03:04:57;6.00;;;2.10;;
67585;SDS011;55785;47.946;20.540;2024-03-22T03:07:23;2.80;;;1.93;;
67585;SDS011;55785;47.946;20.540;2024-03-22T03:09:49;3.47;;;2.15;;
67585;SDS011;55785;47.946;20.540;2024-03-22T03:12:14;5.40;;;2.05;;
67585;SDS011;55785;47.946;20.540;2024-03-22T03:14:40;2.23;;;1.53;;
67585;SDS011;55785;47.946;20.540;2024-03-22T03:17:05;2.43;;;1.83;;
67585;SDS011;55785;47.946;20.540;2024-03-22T03:19:31;4.40;;;2.40;;
67585;SDS011;55785;47.946;20.540;2024-03-22T03:21:56;3.40;;;2.28;;
67585;SDS011;55785;47.946;20.540;2024-03-22T03:24:21;3.13;;;2.00;;
67585;SDS011;55785;47.946;20.540;2024-03-22T03:26:47;4.30;;;2.33;;
67585;SDS011;55785;47.946;20.540;2024-03-22T03:29:13;3.13;;;2.13;;
67585;SDS011;55785;47.946;20.540;2024-03-22T03:31:38;4.80;;;2.00;;
67585;SDS011;55785;47.946;20.540;2024-03-22T03:34:03;3.70;;;1.83;;
67585;SDS011;55785;47.946;20.540;2024-03-22T03:36:29;5.00;;;2.00;;
67585;SDS011;55785;47.946;20.540;2024-03-22T03:38:54;2.90;;;1.80;;
67585;SDS011;55785;47.946;20.540;2024-03-22T03:41:19;4.43;;;2.15;;
67585;SDS011;55785;47.946;20.540;2024-03-22T03:43:45;3.78;;;2.13;;
67585;SDS011;55785;47.946;20.540;2024-03-22T03:46:10;7.07;;;2.03;;
67585;SDS011;55785;47.946;20.540;2024-03-22T03:48:36;6.00;;;2.10;;
67585;SDS011;55785;47.946;20.540;2024-03-22T03:51:01;9.27;;;2.73;;
67585;SDS011;55785;47.946;20.540;2024-03-22T03:53:26;3.47;;;1.80;;
67585;SDS011;55785;47.946;20.540;2024-03-22T03:55:52;4.72;;;2.47;;
67585;SDS011;55785;47.946;20.540;2024-03-22T03:58:17;4.63;;;2.10;;
67585;SDS011;55785;47.946;20.540;2024-03-22T04:00:42;5.05;;;2.40;;
67585;SDS011;55785;47.946;20.540;2024-03-22T04:03:08;4.77;;;2.30;;
67585;SDS011;55785;47.946;20.540;2024-03-22T04:05:33;2.95;;;1.85;;
67585;SDS011;55785;47.946;20.540;2024-03-22T04:07:58;6.60;;;2.30;;
67585;SDS011;55785;47.946;20.540;2024-03-22T04:10:24;4.30;;;2.37;;
67585;SDS011;55785;47.946;20.540;2024-03-22T04:12:49;4.00;;;2.00;;
67585;SDS011;55785;47.946;20.540;2024-03-22T04:15:14;8.27;;;1.95;;
67585;SDS011;55785;47.946;20.540;2024-03-22T04:17:40;3.30;;;2.07;;
67585;SDS011;55785;47.946;20.540;2024-03-22T04:20:05;3.00;;;1.90;;
67585;SDS011;55785;47.946;20.540;2024-03-22T04:22:31;4.22;;;2.05;;
67585;SDS011;55785;47.946;20.540;2024-03-22T04:24:57;5.43;;;2.30;;
67585;SDS011;55785;47.946;20.540;2024-03-22T04:27:22;4.30;;;2.00;;
67585;SDS011;55785;47.946;20.540;2024-03-22T04:29:47;4.32;;;2.00;;
67585;SDS011;55785;47.946;20.540;2024-03-22T04:32:13;4.43;;;2.10;;
67585;SDS011;55785;47.946;20.540;2024-03-22T04:34:41;4.00;;;1.93;;
67585;SDS011;55785;47.946;20.540;2024-03-22T04:37:07;5.15;;;2.58;;
67585;SDS011;55785;47.946;20.540;2024-03-22T04:39:32;6.57;;;2.50;;
67585;SDS011;55785;47.946;20.540;2024-03-22T04:41:58;4.33;;;2.50;;
67585;SDS011;55785;47.946;20.540;2024-03-22T04:44:23;3.37;;;1.80;;
67585;SDS011;55785;47.946;20.540;2024-03-22T04:46:48;3.27;;;2.20;;
67585;SDS011;55785;47.946;20.540;2024-03-22T04:49:14;4.73;;;2.47;;
67585;SDS011;55785;47.946;20.540;2024-03-22T04:51:39;5.88;;;2.60;;
67585;SDS011;55785;47.946;20.540;2024-03-22T04:54:04;6.05;;;2.55;;
67585;SDS011;55785;47.946;20.540;2024-03-22T04:56:30;4.18;;;2.28;;
67585;SDS011;55785;47.946;20.540;2024-03-22T04:58:55;4.63;;;2.20;;
67585;SDS011;55785;47.946;20.540;2024-03-22T05:01:21;6.77;;;2.90;;
67585;SDS011;55785;47.946;20.540;2024-03-22T05:03:46;3.55;;;2.10;;
67585;SDS011;55785;47.946;20.540;2024-03-22T05:06:11;4.38;;;2.15;;
67585;SDS011;55785;47.946;20.540;2024-03-22T05:08:37;5.27;;;2.33;;
67585;SDS011;55785;47.946;20.540;2024-03-22T05:11:02;5.18;;;2.30;;
67585;SDS011;55785;47.946;20.540;2024-03-22T05:13:27;3.50;;;2.27;;
67585;SDS011;55785;47.946;20.540;2024-03-22T05:15:53;2.83;;;1.90;;
67585;SDS011;55785;47.946;20.540;2024-03-22T05:18:18;3.08;;;1.60;;
67585;SDS011;55785;47.946;20.540;2024-03-22T05:20:44;4.30;;;2.65;;
67585;SDS011;55785;47.946;20.540;2024-03-22T05:23:09;3.60;;;2.00;;
67585;SDS011;55785;47.946;20.540;2024-03-22T05:25:34;2.50;;;1.73;;
67585;SDS011;55785;47.946;20.540;2024-03-22T05:28:00;3.43;;;2.00;;
67585;SDS011;55785;47.946;20.540;2024-03-22T05:30:25;4.18;;;2.15;;
67585;SDS011;55785;47.946;20.540;2024-03-22T05:32:50;7.00;;;2.20;;
67585;SDS011;55785;47.946;20.540;2024-03-22T05:35:16;4.45;;;2.20;;
67585;SDS011;55785;47.946;20.540;2024-03-22T05:37:41;3.63;;;1.98;;
67585;SDS011;55785;47.946;20.540;2024-03-22T05:40:07;3.25;;;2.00;;
67585;SDS011;55785;47.946;20.540;2024-03-22T05:42:32;4.03;;;2.35;;
67585;SDS011;55785;47.946;20.540;2024-03-22T05:44:58;4.60;;;2.20;;
67585;SDS011;55785;47.946;20.540;2024-03-22T05:47:23;4.77;;;2.17;;
67585;SDS011;55785;47.946;20.540;2024-03-22T05:49:48;2.67;;;1.90;;
67585;SDS011;55785;47.946;20.540;2024-03-22T05:52:14;4.23;;;2.30;;
67585;SDS011;55785;47.946;20.540;2024-03-22T05:54:39;3.58;;;1.80;;
67585;SDS011;55785;47.946;20.540;2024-03-22T05:57:05;12.18;;;2.50;;
67585;SDS011;55785;47.946;20.540;2024-03-22T05:59:31;5.10;;;2.25;;
67585;SDS011;55785;47.946;20.540;2024-03-22T06:01:56;8.23;;;2.47;;
67585;SDS011;55785;47.946;20.540;2024-03-22T06:04:22;5.95;;;2.83;;
67585;SDS011;55785;47.946;20.540;2024-03-22T06:06:47;5.78;;;3.03;;
67585;SDS011;55785;47.946;20.540;2024-03-22T06:09:12;5.18;;;3.38;;
67585;SDS011;55785;47.946;20.540;2024-03-22T06:11:38;7.93;;;2.95;;
67585;SDS011;55785;47.946;20.540;2024-03-22T06:14:03;6.55;;;2.95;;
67585;SDS011;55785;47.946;20.540;2024-03-22T06:16:28;8.25;;;3.20;;
67585;SDS011;55785;47.946;20.540;2024-03-22T06:18:54;5.35;;;2.80;;
67585;SDS011;55785;47.946;20.540;2024-03-22T06:21:19;7.20;;;3.42;;
67585;SDS011;55785;47.946;20.540;2024-03-22T06:23:44;6.45;;;2.72;;
67585;SDS011;55785;47.946;20.540;2024-03-22T06:26:10;4.82;;;2.50;;
67585;SDS011;55785;47.946;20.540;2024-03-22T06:28:35;5.97;;;1.90;;
67585;SDS011;55785;47.946;20.540;2024-03-22T06:31:00;4.63;;;2.17;;
67585;SDS011;55785;47.946;20.540;2024-03-22T06:33:26;7.30;;;3.70;;
67585;SDS011;55785;47.946;20.540;2024-03-22T06:35:51;6.18;;;3.35;;
67585;SDS011;55785;47.946;20.540;2024-03-22T06:38:16;3.97;;;2.17;;
67585;SDS011;55785;47.946;20.540;2024-03-22T06:40:42;3.95;;;2.30;;
67585;SDS011;55785;47.946;20.540;2024-03-22T06:43:07;4.88;;;2.80;;
67585;SDS011;55785;47.946;20.540;2024-03-22T06:45:32;8.63;;;3.08;;
67585;SDS011;55785;47.946;20.540;2024-03-22T06:47:58;9.05;;;3.38;;
67585;SDS011;55785;47.946;20.540;2024-03-22T06:50:23;5.10;;;2.97;;
67585;SDS011;55785;47.946;20.540;2024-03-22T06:52:49;15.90;;;3.75;;
67585;SDS011;55785;47.946;20.540;2024-03-22T06:55:15;6.40;;;3.83;;
67585;SDS011;55785;47.946;20.540;2024-03-22T06:57:40;6.75;;;3.72;;
67585;SDS011;55785;47.946;20.540;2024-03-22T07:00:06;7.75;;;3.45;;
67585;SDS011;55785;47.946;20.540;2024-03-22T07:02:31;8.63;;;3.63;;
67585;SDS011;55785;47.946;20.540;2024-03-22T07:04:57;10.95;;;4.20;;
67585;SDS011;55785;47.946;20.540;2024-03-22T07:07:22;12.88;;;4.65;;
67585;SDS011;55785;47.946;20.540;2024-03-22T07:09:47;8.05;;;3.67;;
67585;SDS011;55785;47.946;20.540;2024-03-22T07:12:13;11.90;;;4.07;;
67585;SDS011;55785;47.946;20.540;2024-03-22T07:14:38;8.18;;;4.25;;
67585;SDS011;55785;47.946;20.540;2024-03-22T07:17:04;7.47;;;4.25;;
67585;SDS011;55785;47.946;20.540;2024-03-22T07:19:29;8.57;;;3.90;;
67585;SDS011;55785;47.946;20.540;2024-03-22T07:21:54;9.48;;;3.72;;
67585;SDS011;55785;47.946;20.540;2024-03-22T07:24:20;5.50;;;3.22;;
67585;SDS011;55785;47.946;20.540;2024-03-22T07:26:45;7.05;;;3.13;;
67585;SDS011;55785;47.946;20.540;2024-03-22T07:29:10;8.23;;;3.38;;
67585;SDS011;55785;47.946;20.540;2024-03-22T07:31:36;3.97;;;2.83;;
67585;SDS011;55785;47.946;20.540;2024-03-22T07:34:01;6.43;;;3.60;;
67585;SDS011;55785;47.946;20.540;2024-03-22T07:36:26;4.88;;;3.05;;
67585;SDS011;55785;47.946;20.540;2024-03-22T07:38:52;6.95;;;3.10;;
67585;SDS011;55785;47.946;20.540;2024-03-22T07:41:17;5.32;;;2.95;;
67585;SDS011;55785;47.946;20.540;2024-03-22T07:43:43;6.47;;;2.55;;
67585;SDS011;55785;47.946;20.540;2024-03-22T07:46:08;7.05;;;3.15;;
67585;SDS011;55785;47.946;20.540;2024-03-22T07:48:34;4.88;;;2.78;;
67585;SDS011;55785;47.946;20.540;2024-03-22T07:50:59;7.00;;;3.15;;
67585;SDS011;55785;47.946;20.540;2024-03-22T07:53:26;5.75;;;2.92;;
67585;SDS011;55785;47.946;20.540;2024-03-22T07:55:52;5.93;;;3.33;;
67585;SDS011;55785;47.946;20.540;2024-03-22T07:58:17;9.20;;;3.00;;
67585;SDS011;55785;47.946;20.540;2024-03-22T08:00:42;4.03;;;2.50;;
67585;SDS011;55785;47.946;20.540;2024-03-22T08:03:08;9.02;;;3.13;;
67585;SDS011;55785;47.946;20.540;2024-03-22T08:05:39;5.43;;;3.20;;
67585;SDS011;55785;47.946;20.540;2024-03-22T08:08:06;6.20;;;3.40;;
67585;SDS011;55785;47.946;20.540;2024-03-22T08:10:32;7.97;;;3.47;;
67585;SDS011;55785;47.946;20.540;2024-03-22T08:12:57;11.07;;;4.10;;
67585;SDS011;55785;47.946;20.540;2024-03-22T08:15:22;6.30;;;3.35;;
67585;SDS011;55785;47.946;20.540;2024-03-22T08:17:48;5.55;;;3.05;;
67585;SDS011;55785;47.946;20.540;2024-03-22T08:20:13;6.18;;;3.72;;
67585;SDS011;55785;47.946;20.540;2024-03-22T08:22:38;15.98;;;4.18;;
67585;SDS011;55785;47.946;20.540;2024-03-22T08:25:04;7.82;;;3.30;;
67585;SDS011;55785;47.946;20.540;2024-03-22T08:27:29;6.10;;;3.20;;
67585;SDS011;55785;47.946;20.540;2024-03-22T08:29:55;9.52;;;3.88;;
67585;SDS011;55785;47.946;20.540;2024-03-22T08:32:20;6.85;;;3.05;;
67585;SDS011;55785;47.946;20.540;2024-03-22T08:34:46;6.22;;;3.40;;
67585;SDS011;55785;47.946;20.540;2024-03-22T08:37:11;6.45;;;3.45;;
67585;SDS011;55785;47.946;20.540;2024-03-22T08:39:36;7.13;;;3.47;;
67585;SDS011;55785;47.946;20.540;2024-03-22T08:42:02;7.95;;;3.97;;
67585;SDS011;55785;47.946;20.540;2024-03-22T08:44:27;6.40;;;3.30;;
67585;SDS011;55785;47.946;20.540;2024-03-22T08:46:53;7.35;;;3.15;;
67585;SDS011;55785;47.946;20.540;2024-03-22T08:49:18;7.50;;;3.65;;
67585;SDS011;55785;47.946;20.540;2024-03-22T08:51:43;6.50;;;3.50;;
67585;SDS011;55785;47.946;20.540;2024-03-22T08:54:09;6.93;;;3.55;;
67585;SDS011;55785;47.946;20.540;2024-03-22T08:56:34;7.53;;;3.90;;
67585;SDS011;55785;47.946;20.540;2024-03-22T08:58:59;11.43;;;4.00;;
67585;SDS011;55785;47.946;20.540;2024-03-22T09:01:25;7.53;;;3.95;;
67585;SDS011;55785;47.946;20.540;2024-03-22T09:03:50;8.30;;;4.25;;
67585;SDS011;55785;47.946;20.540;2024-03-22T09:06:15;10.02;;;4.45;;
67585;SDS011;55785;47.946;20.540;2024-03-22T09:08:41;9.07;;;4.28;;
67585;SDS011;55785;47.946;20.540;2024-03-22T09:11:06;13.90;;;4.55;;
67585;SDS011;55785;47.946;20.540;2024-03-22T09:13:31;13.05;;;4.90;;
67585;SDS011;55785;47.946;20.540;2024-03-22T09:16:00;9.93;;;4.45;;
67585;SDS011;55785;47.946;20.540;2024-03-22T09:18:26;8.40;;;4.10;;
67585;SDS011;55785;47.946;20.540;2024-03-22T09:20:52;11.90;;;4.40;;
67585;SDS011;55785;47.946;20.540;2024-03-22T09:23:18;15.52;;;4.32;;
67585;SDS011;55785;47.946;20.540;2024-03-22T09:25:45;9.35;;;4.28;;
67585;SDS011;55785;47.946;20.540;2024-03-22T09:28:13;9.65;;;4.40;;
67585;SDS011;55785;47.946;20.540;2024-03-22T09:30:39;9.73;;;4.45;;
67585;SDS011;55785;47.946;20.540;2024-03-22T09:33:05;7.50;;;3.92;;
67585;SDS011;55785;47.946;20.540;2024-03-22T09:35:31;9.77;;;4.63;;
67585;SDS011;55785;47.946;20.540;2024-03-22T09:38:01;8.73;;;3.75;;
67585;SDS011;55785;47.946;20.540;2024-03-22T09:40:26;10.70;;;5.05;;
67585;SDS011;55785;47.946;20.540;2024-03-22T09:42:52;13.48;;;4.32;;
67585;SDS011;55785;47.946;20.540;2024-03-22T09:45:18;10.88;;;4.45;;
67585;SDS011;55785;47.946;20.540;2024-03-22T09:47:44;10.18;;;5.18;;
67585;SDS011;55785;47.946;20.540;2024-03-22T09:50:11;8.95;;;4.60;;
67585;SDS011;55785;47.946;20.540;2024-03-22T09:52:37;8.73;;;4.00;;
67585;SDS011;55785;47.946;20.540;2024-03-22T09:55:04;10.20;;;4.35;;
67585;SDS011;55785;47.946;20.540;2024-03-22T09:57:30;8.30;;;4.18;;
67585;SDS011;55785;47.946;20.540;2024-03-22T09:59:59;13.90;;;4.60;;
67585;SDS011;55785;47.946;20.540;2024-03-22T10:02:24;7.30;;;4.07;;
67585;SDS011;55785;47.946;20.540;2024-03-22T10:04:50;13.13;;;4.63;;
67585;SDS011;55785;47.946;20.540;2024-03-22T10:07:17;10.52;;;4.72;;
67585;SDS011;55785;47.946;20.540;2024-03-22T10:09:43;8.40;;;4.75;;
67585;SDS011;55785;47.946;20.540;2024-03-22T10:12:08;10.07;;;4.53;;
67585;SDS011;55785;47.946;20.540;2024-03-22T10:14:34;12.13;;;5.18;;
67585;SDS011;55785;47.946;20.540;2024-03-22T10:16:59;11.10;;;5.38;;
67585;SDS011;55785;47.946;20.540;2024-03-22T10:19:25;13.27;;;5.55;;
67585;SDS011;55785;47.946;20.540;2024-03-22T10:22:03;11.07;;;4.95;;
67585;SDS011;55785;47.946;20.540;2024-03-22T10:24:29;10.73;;;4.82;;
67585;SDS011;55785;47.946;20.540;2024-03-22T10:26:55;11.10;;;5.15;;
67585;SDS011;55785;47.946;20.540;2024-03-22T10:29:21;8.95;;;4.25;;
67585;SDS011;55785;47.946;20.540;2024-03-22T10:31:46;11.45;;;5.03;;
67585;SDS011;55785;47.946;20.540;2024-03-22T10:34:12;9.52;;;4.43;;
67585;SDS011;55785;47.946;20.540;2024-03-22T10:36:38;10.82;;;4.70;;
67585;SDS011;55785;47.946;20.540;2024-03-22T10:39:04;9.93;;;5.15;;
67585;SDS011;55785;47.946;20.540;2024-03-22T10:41:30;11.48;;;4.93;;
67585;SDS011;55785;47.946;20.540;2024-03-22T10:43:56;10.00;;;5.07;;
67585;SDS011;55785;47.946;20.540;2024-03-22T10:46:22;10.82;;;4.53;;
67585;SDS011;55785;47.946;20.540;2024-03-22T10:48:54;10.15;;;5.32;;
67585;SDS011;55785;47.946;20.540;2024-03-22T10:51:20;10.30;;;4.95;;
67585;SDS011;55785;47.946;20.540;2024-03-22T10:53:46;11.98;;;5.10;;
67585;SDS011;55785;47.946;20.540;2024-03-22T10:56:12;9.30;;;4.72;;
67585;SDS011;55785;47.946;20.540;2024-03-22T10:58:41;11.73;;;4.85;;
67585;SDS011;55785;47.946;20.540;2024-03-22T11:01:06;11.45;;;4.85;;
67585;SDS011;55785;47.946;20.540;2024-03-22T11:04:04;7.95;;;3.67;;
67585;SDS011;55785;47.946;20.540;2024-03-22T11:06:30;12.05;;;4.65;;
67585;SDS011;55785;47.946;20.540;2024-03-22T11:08:58;9.18;;;4.53;;
67585;SDS011;55785;47.946;20.540;2024-03-22T11:11:24;9.10;;;4.05;;
67585;SDS011;55785;47.946;20.540;2024-03-22T11:13:53;10.48;;;4.18;;
67585;SDS011;55785;47.946;20.540;2024-03-22T11:16:18;9.73;;;4.18;;
67585;SDS011;55785;47.946;20.540;2024-03-22T11:18:44;8.15;;;3.72;;
67585;SDS011;55785;47.946;20.540;2024-03-22T11:21:10;9.75;;;4.32;;
67585;SDS011;55785;47.946;20.540;2024-03-22T11:23:36;12.02;;;3.95;;
67585;SDS011;55785;47.946;20.540;2024-03-22T11:26:02;11.18;;;4.57;;
67585;SDS011;55785;47.946;20.540;2024-03-22T11:28:28;8.93;;;4.05;;
67585;SDS011;55785;47.946;20.540;2024-03-22T11:30:53;13.30;;;4.80;;
67585;SDS011;55785;47.946;20.540;2024-03-22T11:33:19;12.05;;;5.18;;
67585;SDS011;55785;47.946;20.540;2024-03-22T11:35:44;12.88;;;4.68;;
67585;SDS011;55785;47.946;20.540;2024-03-22T11:38:09;8.32;;;4.45;;
67585;SDS011;55785;47.946;20.540;2024-03-22T11:40:35;10.85;;;4.32;;
67585;SDS011;55785;47.946;20.540;2024-03-22T11:43:01;10.85;;;5.10;;
67585;SDS011;55785;47.946;20.540;2024-03-22T11:45:27;10.75;;;4.68;;
67585;SDS011;55785;47.946;20.540;2024-03-22T11:47:53;10.48;;;4.60;;
67585;SDS011;55785;47.946;20.540;2024-03-22T11:50:18;10.82;;;4.75;;
67585;SDS011;55785;47.946;20.540;2024-03-22T11:52:44;10.18;;;4.55;;
67585;SDS011;55785;47.946;20.540;2024-03-22T11:55:10;7.28;;;4.03;;
67585;SDS011;55785;47.946;20.540;2024-03-22T11:57:36;10.25;;;4.18;;
67585;SDS011;55785;47.946;20.540;2024-03-22T12:00:02;9.70;;;4.13;;
67585;SDS011;55785;47.946;20.540;2024-03-22T12:02:28;10.07;;;4.45;;
67585;SDS011;55785;47.946;20.540;2024-03-22T12:04:57;12.55;;;4.32;;
67585;SDS011;55785;47.946;20.540;2024-03-22T12:07:23;10.43;;;4.68;;
67585;SDS011;55785;47.946;20.540;2024-03-22T12:09:49;11.23;;;5.18;;
67585;SDS011;55785;47.946;20.540;2024-03-22T12:12:14;12.25;;;5.10;;
67585;SDS011;55785;47.946;20.540;2024-03-22T12:14:40;13.10;;;4.75;;
67585;SDS011;55785;47.946;20.540;2024-03-22T12:17:05;10.30;;;4.90;;
67585;SDS011;55785;47.946;20.540;2024-03-22T12:19:32;10.50;;;4.70;;
67585;SDS011;55785;47.946;20.540;2024-03-22T12:21:58;12.43;;;5.40;;
67585;SDS011;55785;47.946;20.540;2024-03-22T12:24:24;12.98;;;4.63;;
67585;SDS011;55785;47.946;20.540;2024-03-22T12:26:49;15.60;;;5.18;;
67585;SDS011;55785;47.946;20.540;2024-03-22T12:29:15;9.07;;;4.88;;
67585;SDS011;55785;47.946;20.540;2024-03-22T12:31:41;11.90;;;4.63;;
67585;SDS011;55785;47.946;20.540;2024-03-22T12:34:07;10.70;;;5.13;;
67585;SDS011;55785;47.946;20.540;2024-03-22T12:36:33;7.50;;;4.28;;
67585;SDS011;55785;47.946;20.540;2024-03-22T12:38:58;12.82;;;4.68;;
67585;SDS011;55785;47.946;20.540;2024-03-22T12:41:23;11.60;;;5.10;;
67585;SDS011;55785;47.946;20.540;2024-03-22T12:43:49;11.07;;;4.53;;
67585;SDS011;55785;47.946;20.540;2024-03-22T12:46:14;7.72;;;3.97;;
67585;SDS011;55785;47.946;20.540;2024-03-22T12:48:39;7.68;;;4.03;;
67585;SDS011;55785;47.946;20.540;2024-03-22T12:51:05;13.85;;;5.55;;
67585;SDS011;55785;47.946;20.540;2024-03-22T12:53:31;11.13;;;4.63;;
67585;SDS011;55785;47.946;20.540;2024-03-22T12:55:57;9.30;;;4.30;;
67585;SDS011;55785;47.946;20.540;2024-03-22T12:58:22;11.85;;;4.97;;
67585;SDS011;55785;47.946;20.540;2024-03-22T13:00:48;12.43;;;5.28;;
67585;SDS011;55785;47.946;20.540;2024-03-22T13:03:13;9.05;;;4.30;;
67585;SDS011;55785;47.946;20.540;2024-03-22T13:05:38;12.10;;;4.80;;
67585;SDS011;55785;47.946;20.540;2024-03-22T13:08:04;9.55;;;4.32;;
67585;SDS011;55785;47.946;20.540;2024-03-22T13:10:29;10.10;;;4.50;;
67585;SDS011;55785;47.946;20.540;2024-03-22T13:12:55;10.23;;;4.93;;
67585;SDS011;55785;47.946;20.540;2024-03-22T13:15:20;12.38;;;5.03;;
67585;SDS011;55785;47.946;20.540;2024-03-22T13:17:45;9.70;;;4.32;;
67585;SDS011;55785;47.946;20.540;2024-03-22T13:20:11;9.60;;;4.57;;
67585;SDS011;55785;47.946;20.540;2024-03-22T13:22:37;9.68;;;4.47;;
67585;SDS011;55785;47.946;20.540;2024-03-22T13:25:03;13.30;;;4.53;;
67585;SDS011;55785;47.946;20.540;2024-03-22T13:27:29;11.93;;;4.35;;
67585;SDS011;55785;47.946;20.540;2024-03-22T13:29:55;12.05;;;4.53;;
67585;SDS011;55785;47.946;20.540;2024-03-22T13:32:20;10.35;;;4.78;;
67585;SDS011;55785;47.946;20.540;2024-03-22T13:34:45;9.00;;;4.07;;
67585;SDS011;55785;47.946;20.540;2024-03-22T13:37:11;10.73;;;4.32;;
67585;SDS011;55785;47.946;20.540;2024-03-22T13:39:36;9.13;;;4.57;;
67585;SDS011;55785;47.946;20.540;2024-03-22T13:42:02;12.93;;;5.03;;
67585;SDS011;55785;47.946;20.540;2024-03-22T13:44:27;13.05;;;4.60;;
67585;SDS011;55785;47.946;20.540;2024-03-22T13:46:52;11.32;;;5.07;;
67585;SDS011;55785;47.946;20.540;2024-03-22T13:49:19;8.10;;;4.65;;
67585;SDS011;55785;47.946;20.540;2024-03-22T13:51:45;11.20;;;4.68;;
67585;SDS011;55785;47.946;20.540;2024-03-22T13:54:11;10.95;;;4.18;;
67585;SDS011;55785;47.946;20.540;2024-03-22T13:56:37;8.45;;;4.28;;
67585;SDS011;55785;47.946;20.540;2024-03-22T13:59:02;7.53;;;4.30;;
67585;SDS011;55785;47.946;20.540;2024-03-22T14:01:28;8.65;;;4.38;;
67585;SDS011;55785;47.946;20.540;2024-03-22T14:03:54;11.70;;;4.88;;
67585;SDS011;55785;47.946;20.540;2024-03-22T14:06:19;10.82;;;4.85;;
67585;SDS011;55785;47.946;20.540;2024-03-22T14:08:44;11.95;;;4.85;;
67585;SDS011;55785;47.946;20.540;2024-03-22T14:11:10;9.95;;;4.28;;
67585;SDS011;55785;47.946;20.540;2024-03-22T14:13:35;11.27;;;4.72;;
67585;SDS011;55785;47.946;20.540;2024-03-22T14:16:00;8.75;;;4.50;;
67585;SDS011;55785;47.946;20.540;2024-03-22T14:18:26;10.18;;;5.03;;
67585;SDS011;55785;47.946;20.540;2024-03-22T14:20:51;11.70;;;4.93;;